createdAt,value
2023-09-06T00:01:19.445Z,20.22
2023-09-06T00:03:46.069Z,20.20
2023-09-06T00:06:12.793Z,20.20
2023-09-06T00:08:39.321Z,20.20
2023-09-06T00:11:06.836Z,20.14
2023-09-06T00:13:34.436Z,20.10
2023-09-06T00:16:01.481Z,20.04
2023-09-06T00:18:28.900Z,20.00
2023-09-06T00:20:55.724Z,19.97
2023-09-06T00:23:22.265Z,19.91
2023-09-06T00:25:48.748Z,19.88
2023-09-06T00:28:15.186Z,19.86
2023-09-06T00:30:45.690Z,19.81
2023-09-06T00:33:12.769Z,19.78
2023-09-06T00:35:40.213Z,19.74
2023-09-06T00:38:07.886Z,19.67
2023-09-06T00:40:37.516Z,19.62
2023-09-06T00:43:08.452Z,19.56
2023-09-06T00:45:34.962Z,19.53
2023-09-06T00:48:02.819Z,19.52
2023-09-06T00:50:29.565Z,19.51
2023-09-06T00:52:57.064Z,19.47
2023-09-06T00:55:23.786Z,19.43
2023-09-06T00:57:50.409Z,19.40
2023-09-06T01:00:19.203Z,19.39
2023-09-06T01:02:46.469Z,19.35
2023-09-06T01:05:14.028Z,19.33
2023-09-06T01:07:41.682Z,19.31
2023-09-06T01:10:08.802Z,19.37
2023-09-06T01:12:35.779Z,19.37
2023-09-06T01:15:06.126Z,19.39
2023-09-06T01:17:38.098Z,19.41
2023-09-06T01:20:19.211Z,19.39
2023-09-06T01:23:13.698Z,19.45
2023-09-06T01:25:40.907Z,19.49
2023-09-06T01:28:07.873Z,19.44
2023-09-06T01:30:34.542Z,19.46
2023-09-06T01:33:01.110Z,19.44
2023-09-06T01:35:27.588Z,19.43
2023-09-06T01:37:54.148Z,19.44
2023-09-06T01:40:21.194Z,19.34
2023-09-06T01:42:47.907Z,19.27
2023-09-06T01:45:18.722Z,19.22
2023-09-06T01:47:46.095Z,19.16
2023-09-06T01:50:12.614Z,19.10
2023-09-06T01:52:41.293Z,19.02
2023-09-06T01:55:10.622Z,18.95
2023-09-06T01:57:37.166Z,18.88
2023-09-06T02:00:17.868Z,18.83
2023-09-06T02:02:44.543Z,18.82
2023-09-06T02:05:11.168Z,18.82
2023-09-06T02:07:37.713Z,18.82
2023-09-06T02:10:05.328Z,18.84
2023-09-06T02:12:31.978Z,18.84
2023-09-06T02:14:58.398Z,18.87
2023-09-06T02:17:25.299Z,18.91
2023-09-06T02:19:51.831Z,18.93
2023-09-06T02:22:19.572Z,18.95
2023-09-06T02:24:46.103Z,18.92
2023-09-06T02:27:13.990Z,18.87
2023-09-06T02:29:41.373Z,18.82
2023-09-06T02:32:07.919Z,18.79
2023-09-06T02:34:35.392Z,18.74
2023-09-06T02:37:02.252Z,18.71
2023-09-06T02:39:28.740Z,18.69
2023-09-06T02:41:55.151Z,18.67
2023-09-06T02:44:21.582Z,18.71
2023-09-06T02:46:48.022Z,18.71
2023-09-06T02:49:14.667Z,18.68
2023-09-06T02:51:43.897Z,18.63
2023-09-06T02:54:10.697Z,18.56
2023-09-06T02:56:40.099Z,18.50
2023-09-06T02:59:13.654Z,18.43
2023-09-06T03:01:45.991Z,18.38
2023-09-06T03:04:14.530Z,18.34
2023-09-06T03:06:44.529Z,18.29
2023-09-06T03:09:11.779Z,18.27
2023-09-06T03:11:38.706Z,18.26
2023-09-06T03:14:05.674Z,18.23
2023-09-06T03:16:39.873Z,18.18
2023-09-06T03:19:11.991Z,18.12
2023-09-06T03:21:38.861Z,18.05
2023-09-06T03:24:13.465Z,18.01
2023-09-06T03:26:41.350Z,17.98
2023-09-06T03:29:11.516Z,17.97
2023-09-06T03:31:44.206Z,17.94
2023-09-06T03:34:14.458Z,17.93
2023-09-06T03:36:42.133Z,17.92
2023-09-06T03:39:14.857Z,17.93
2023-09-06T03:41:42.281Z,17.92
2023-09-06T03:44:08.820Z,17.93
2023-09-06T03:46:38.324Z,17.95
2023-09-06T03:49:08.168Z,17.96
2023-09-06T03:51:36.984Z,17.98
2023-09-06T03:54:07.365Z,17.96
2023-09-06T03:56:34.974Z,17.94
2023-09-06T03:59:01.762Z,17.91
2023-09-06T04:01:28.524Z,17.87
2023-09-06T04:03:55.118Z,17.83
2023-09-06T04:06:21.789Z,17.84
2023-09-06T04:08:49.487Z,17.83
2023-09-06T04:11:17.913Z,17.83
2023-09-06T04:13:45.758Z,17.83
2023-09-06T04:16:12.372Z,17.83
2023-09-06T04:18:39.002Z,17.83
2023-09-06T04:21:09.975Z,17.82
2023-09-06T04:23:40.614Z,17.81
2023-09-06T04:26:07.366Z,17.81
2023-09-06T04:28:34.103Z,17.81
2023-09-06T04:31:01.548Z,17.81
2023-09-06T04:33:28.165Z,17.82
2023-09-06T04:35:54.680Z,17.81
2023-09-06T04:38:22.009Z,17.78
2023-09-06T04:40:48.608Z,17.77
2023-09-06T04:43:16.893Z,17.76
2023-09-06T04:45:44.124Z,17.77
2023-09-06T04:48:11.325Z,17.77
2023-09-06T04:50:41.189Z,17.82
2023-09-06T04:53:12.714Z,18.02
2023-09-06T04:55:41.008Z,18.42
2023-09-06T04:58:08.441Z,18.81
2023-09-06T05:00:44.565Z,19.03
2023-09-06T05:03:14.244Z,19.18
2023-09-06T05:05:41.856Z,19.24
2023-09-06T05:08:09.786Z,19.38
2023-09-06T05:10:40.472Z,19.50
2023-09-06T05:13:09.542Z,19.62
2023-09-06T05:15:39.086Z,19.70
2023-09-06T05:18:06.338Z,19.76
2023-09-06T05:20:38.672Z,19.82
2023-09-06T05:23:06.235Z,19.92
2023-09-06T05:25:33.226Z,20.01
2023-09-06T05:28:04.223Z,20.07
2023-09-06T05:30:31.432Z,20.08
2023-09-06T05:32:57.967Z,20.04
2023-09-06T05:35:25.394Z,20.02
2023-09-06T05:37:52.074Z,19.99
2023-09-06T05:40:23.713Z,20.02
2023-09-06T05:42:53.518Z,19.99
2023-09-06T05:45:21.022Z,19.93
2023-09-06T05:47:48.144Z,19.92
2023-09-06T05:50:15.281Z,19.97
2023-09-06T05:52:41.730Z,20.04
2023-09-06T05:55:09.304Z,20.09
2023-09-06T05:57:36.128Z,20.10
2023-09-06T06:00:03.303Z,20.21
2023-09-06T06:02:30.968Z,20.34
2023-09-06T06:04:57.698Z,20.48
2023-09-06T06:07:24.390Z,20.66
2023-09-06T06:09:50.851Z,20.76
2023-09-06T06:12:23.750Z,20.80
2023-09-06T06:14:54.028Z,20.92
2023-09-06T06:17:20.578Z,20.99
2023-09-06T06:19:48.242Z,21.11
2023-09-06T06:22:14.740Z,21.21
2023-09-06T06:24:42.603Z,21.32
2023-09-06T06:27:09.357Z,21.39
2023-09-06T06:29:36.211Z,21.48
2023-09-06T06:32:02.910Z,21.53
2023-09-06T06:34:29.477Z,21.60
2023-09-06T06:36:56.001Z,21.71
2023-09-06T06:39:22.413Z,21.81
2023-09-06T06:41:48.925Z,21.89
2023-09-06T06:44:15.535Z,21.94
2023-09-06T06:46:42.957Z,22.01
2023-09-06T06:49:10.116Z,22.09
2023-09-06T06:51:39.616Z,22.07
2023-09-06T06:54:11.389Z,22.03
2023-09-06T06:56:38.376Z,22.07
2023-09-06T06:59:05.313Z,22.15
2023-09-06T07:01:32.458Z,22.23
2023-09-06T07:03:59.185Z,22.26
2023-09-06T07:06:26.275Z,22.25
2023-09-06T07:08:53.729Z,22.27
2023-09-06T07:11:20.675Z,22.38
2023-09-06T07:13:47.997Z,22.47
2023-09-06T07:16:15.321Z,22.60
2023-09-06T07:18:42.294Z,22.69
2023-09-06T07:21:08.825Z,22.78
2023-09-06T07:23:35.369Z,22.65
2023-09-06T07:26:01.880Z,22.61
2023-09-06T07:28:36.194Z,22.69
2023-09-06T07:31:02.765Z,22.70
2023-09-06T07:33:29.253Z,22.59
2023-09-06T07:35:55.676Z,22.53
2023-09-06T07:38:22.214Z,22.52
2023-09-06T07:40:56.345Z,22.61
2023-09-06T07:43:22.800Z,22.65
2023-09-06T07:45:49.346Z,22.75
2023-09-06T07:48:16.009Z,22.78
2023-09-06T07:50:42.619Z,22.69
2023-09-06T07:53:10.000Z,22.60
2023-09-06T07:55:36.550Z,22.65
2023-09-06T07:58:03.001Z,22.71
2023-09-06T08:00:31.768Z,22.64
2023-09-06T08:02:58.788Z,22.75
2023-09-06T08:05:25.595Z,22.88
2023-09-06T08:07:52.088Z,23.04
2023-09-06T08:10:19.442Z,23.10
2023-09-06T08:12:45.914Z,23.18
2023-09-06T08:15:13.291Z,23.27
2023-09-06T08:17:39.798Z,23.15
2023-09-06T08:20:09.862Z,23.06
2023-09-06T08:22:44.894Z,23.07
2023-09-06T08:25:13.349Z,23.04
2023-09-06T08:27:39.970Z,23.01
2023-09-06T08:30:08.528Z,23.10
2023-09-06T08:32:35.118Z,23.20
2023-09-06T08:35:01.676Z,23.27
2023-09-06T08:37:28.152Z,23.50
2023-09-06T08:39:54.736Z,23.68
2023-09-06T08:42:21.909Z,23.78
2023-09-06T08:44:49.454Z,23.83
2023-09-06T08:47:18.532Z,23.77
2023-09-06T08:49:47.245Z,23.79
2023-09-06T08:52:15.819Z,23.85
2023-09-06T08:54:50.551Z,23.90
2023-09-06T08:57:17.171Z,24.05
2023-09-06T08:59:44.304Z,24.09
2023-09-06T09:02:15.805Z,24.11
2023-09-06T09:04:43.571Z,24.10
2023-09-06T09:07:12.144Z,24.19
2023-09-06T09:09:57.921Z,24.21
2023-09-06T09:12:25.719Z,24.29
2023-09-06T09:14:52.743Z,24.39
2023-09-06T09:17:26.249Z,24.43
2023-09-06T09:19:56.272Z,24.50
2023-09-06T09:22:25.661Z,24.60
2023-09-06T09:24:59.779Z,24.76
2023-09-06T09:27:35.113Z,24.83
2023-09-06T09:30:05.422Z,24.99
2023-09-06T09:32:33.340Z,25.15
2023-09-06T09:35:00.173Z,25.25
2023-09-06T09:37:31.031Z,25.28
2023-09-06T09:39:57.988Z,25.31
2023-09-06T09:42:24.971Z,25.33
2023-09-06T09:45:02.150Z,25.45
2023-09-06T09:50:00.646Z,25.63
2023-09-06T09:52:29.222Z,25.63
2023-09-06T09:54:56.674Z,25.65
2023-09-06T09:57:24.968Z,25.74
2023-09-06T09:59:53.092Z,25.78
2023-09-06T10:02:31.342Z,25.83
2023-09-06T10:05:04.028Z,25.92
2023-09-06T10:07:46.861Z,26.03
2023-09-06T10:10:16.386Z,26.14
2023-09-06T10:12:47.192Z,26.21
2023-09-06T10:15:20.565Z,26.30
2023-09-06T10:17:55.960Z,26.36
2023-09-06T10:20:24.601Z,26.47
2023-09-06T10:22:55.061Z,26.62
2023-09-06T10:25:21.722Z,26.76
2023-09-06T10:27:52.263Z,26.84
2023-09-06T10:30:22.464Z,26.97
2023-09-06T10:32:49.022Z,27.03
2023-09-06T10:35:31.280Z,27.15
2023-09-06T10:38:08.049Z,27.17
2023-09-06T10:40:52.875Z,27.24
2023-09-06T10:43:30.069Z,27.29
2023-09-06T10:45:56.842Z,27.41
2023-09-06T10:48:24.005Z,27.50
2023-09-06T10:51:05.966Z,27.60
2023-09-06T10:53:32.424Z,27.69
2023-09-06T10:56:01.213Z,27.75
2023-09-06T10:58:29.352Z,27.87
2023-09-06T11:01:14.612Z,27.94
2023-09-06T11:03:42.826Z,27.91
2023-09-06T11:06:10.796Z,27.92
2023-09-06T11:08:40.026Z,27.96
2023-09-06T11:11:09.085Z,27.99
2023-09-06T11:13:36.802Z,28.03
2023-09-06T11:16:04.470Z,28.07
2023-09-06T11:18:34.529Z,28.19
2023-09-06T11:21:01.176Z,28.37
2023-09-06T11:23:27.702Z,28.50
2023-09-06T11:25:55.079Z,28.63
2023-09-06T11:28:22.616Z,28.79
2023-09-06T11:30:49.977Z,28.85
2023-09-06T11:33:17.618Z,28.91
2023-09-06T11:35:52.661Z,28.98
2023-09-06T11:38:25.228Z,29.02
2023-09-06T11:40:52.203Z,29.09
2023-09-06T11:43:24.101Z,29.10
2023-09-06T11:45:54.586Z,29.13
2023-09-06T11:48:28.624Z,29.21
2023-09-06T11:51:13.026Z,29.35
2023-09-06T11:53:55.302Z,29.51
2023-09-06T11:56:28.492Z,29.63
2023-09-06T11:59:00.784Z,29.72
2023-09-06T12:01:27.927Z,29.72
2023-09-06T12:03:57.347Z,29.76
2023-09-06T12:06:26.500Z,29.72
2023-09-06T12:08:53.166Z,29.77
2023-09-06T12:11:23.041Z,29.98
2023-09-06T12:13:49.846Z,30.03
2023-09-06T12:16:21.194Z,30.16
2023-09-06T12:18:48.185Z,30.35
2023-09-06T12:21:16.489Z,30.53
2023-09-06T12:23:43.440Z,30.65
2023-09-06T12:26:10.144Z,30.62
2023-09-06T12:28:36.683Z,30.60
2023-09-06T12:31:16.112Z,30.66
2023-09-06T12:33:45.758Z,30.77
2023-09-06T12:36:13.726Z,30.94
2023-09-06T12:38:40.446Z,31.09
2023-09-06T12:41:07.705Z,31.20
2023-09-06T12:43:37.555Z,31.21
2023-09-06T12:46:12.894Z,31.13
2023-09-06T12:48:39.878Z,31.13
2023-09-06T12:51:07.870Z,31.09
2023-09-06T12:53:34.604Z,31.09
2023-09-06T12:56:01.104Z,31.06
2023-09-06T12:58:28.767Z,31.10
2023-09-06T13:00:55.928Z,31.21
2023-09-06T13:03:22.674Z,31.17
2023-09-06T13:05:50.248Z,31.18
2023-09-06T13:08:20.129Z,31.25
2023-09-06T13:10:47.543Z,31.23
2023-09-06T13:13:14.217Z,31.33
2023-09-06T13:15:41.061Z,31.32
2023-09-06T13:18:08.700Z,31.38
2023-09-06T13:20:35.569Z,31.43
2023-09-06T13:23:02.498Z,31.57
2023-09-06T13:25:29.325Z,31.79
2023-09-06T13:27:56.021Z,31.94
2023-09-06T13:30:22.689Z,31.99
2023-09-06T13:32:49.531Z,32.02
2023-09-06T13:35:16.282Z,32.22
2023-09-06T13:37:42.927Z,32.40
2023-09-06T13:40:10.266Z,32.62
2023-09-06T13:42:36.904Z,32.75
2023-09-06T13:45:05.487Z,32.81
2023-09-06T13:47:32.331Z,33.08
2023-09-06T13:49:59.224Z,33.35
2023-09-06T13:52:26.053Z,33.75
2023-09-06T13:54:52.644Z,34.14
2023-09-06T13:57:19.275Z,34.59
2023-09-06T13:59:46.024Z,35.01
2023-09-06T14:02:12.878Z,35.36
2023-09-06T14:04:39.669Z,35.47
2023-09-06T14:07:06.322Z,35.65
2023-09-06T14:09:32.961Z,35.81
2023-09-06T14:11:59.530Z,36.04
2023-09-06T14:14:26.710Z,36.28
2023-09-06T14:16:54.453Z,36.50
2023-09-06T14:19:21.162Z,36.71
2023-09-06T14:21:47.818Z,36.92
2023-09-06T14:24:16.597Z,37.01
2023-09-06T14:26:44.457Z,37.28
2023-09-06T14:29:13.321Z,37.67
2023-09-06T14:31:40.693Z,37.83
2023-09-06T14:34:07.434Z,38.18
2023-09-06T14:36:34.092Z,38.15
2023-09-06T14:39:02.390Z,38.11
2023-09-06T14:41:29.064Z,38.15
2023-09-06T14:43:56.693Z,38.37
2023-09-06T14:46:23.789Z,38.60
2023-09-06T14:48:50.596Z,38.97
2023-09-06T14:51:17.474Z,39.04
2023-09-06T14:53:44.142Z,39.13
2023-09-06T14:56:10.873Z,39.38
2023-09-06T14:58:37.644Z,39.55
2023-09-06T15:01:06.272Z,39.51
2023-09-06T15:03:34.697Z,39.39
2023-09-06T15:06:01.666Z,39.16
2023-09-06T15:08:28.582Z,39.28
2023-09-06T15:10:55.489Z,39.62
2023-09-06T15:13:22.199Z,39.89
2023-09-06T15:15:49.291Z,40.10
2023-09-06T15:18:16.170Z,40.03
2023-09-06T15:20:42.830Z,40.06
2023-09-06T15:23:09.448Z,40.01
2023-09-06T15:25:36.170Z,40.11
2023-09-06T15:28:02.859Z,40.06
2023-09-06T15:30:29.606Z,40.04
2023-09-06T15:32:56.299Z,40.19
2023-09-06T15:35:29.709Z,40.28
2023-09-06T15:38:00.731Z,40.17
2023-09-06T15:40:27.673Z,39.82
2023-09-06T15:42:54.204Z,39.75
2023-09-06T15:45:20.801Z,39.60
2023-09-06T15:47:49.328Z,39.80
2023-09-06T15:50:17.103Z,39.86
2023-09-06T15:52:46.544Z,40.02
2023-09-06T15:55:14.015Z,39.92
2023-09-06T15:57:40.706Z,39.91
2023-09-06T16:00:24.369Z,39.97
2023-09-06T16:02:57.631Z,39.87
2023-09-06T16:05:24.552Z,39.77
2023-09-06T16:07:51.101Z,39.63
2023-09-06T16:10:17.903Z,39.60
2023-09-06T16:12:48.617Z,39.55
2023-09-06T16:15:20.668Z,39.61
2023-09-06T16:17:47.376Z,39.70
2023-09-06T16:20:14.171Z,39.69
2023-09-06T16:22:42.377Z,39.42
2023-09-06T16:25:11.323Z,39.14
2023-09-06T16:27:38.598Z,39.05
2023-09-06T16:30:07.351Z,38.80
2023-09-06T16:32:34.304Z,38.66
2023-09-06T16:35:08.899Z,38.45
2023-09-06T16:37:39.850Z,37.72
2023-09-06T16:40:12.063Z,36.75
2023-09-06T16:42:41.070Z,35.69
2023-09-06T16:45:08.604Z,34.89
2023-09-06T16:47:35.246Z,34.17
2023-09-06T16:50:02.391Z,33.57
2023-09-06T16:52:29.030Z,33.13
2023-09-06T16:54:57.090Z,32.74
2023-09-06T16:57:24.949Z,32.38
2023-09-06T16:59:51.491Z,32.04
2023-09-06T17:02:18.195Z,31.82
2023-09-06T17:04:44.790Z,31.58
2023-09-06T17:07:11.396Z,31.39
2023-09-06T17:09:37.926Z,31.19
2023-09-06T17:12:04.624Z,30.98
2023-09-06T17:14:32.231Z,30.82
2023-09-06T17:16:58.920Z,30.44
2023-09-06T17:19:26.592Z,30.13
2023-09-06T17:21:53.207Z,29.92
2023-09-06T17:24:19.789Z,29.70
2023-09-06T17:26:49.079Z,29.56
2023-09-06T17:29:16.089Z,29.36
2023-09-06T17:31:43.374Z,29.19
2023-09-06T17:34:13.196Z,29.01
2023-09-06T17:36:40.631Z,28.82
2023-09-06T17:39:10.806Z,28.66
2023-09-06T17:41:39.085Z,28.49
2023-09-06T17:44:07.783Z,28.34
2023-09-06T17:46:35.757Z,28.20
2023-09-06T17:49:09.960Z,28.03
2023-09-06T17:51:37.889Z,27.82
2023-09-06T17:54:04.877Z,27.66
2023-09-06T17:56:33.048Z,27.52
2023-09-06T17:58:59.780Z,27.35
2023-09-06T18:01:27.278Z,27.17
2023-09-06T18:03:58.666Z,26.99
2023-09-06T18:06:27.155Z,26.86
2023-09-06T18:08:59.517Z,26.74
2023-09-06T18:11:26.710Z,26.63
2023-09-06T18:13:53.609Z,26.60
2023-09-06T18:16:21.024Z,26.52
2023-09-06T18:18:49.289Z,26.43
2023-09-06T18:21:17.769Z,26.30
2023-09-06T18:23:46.082Z,26.19
2023-09-06T18:26:13.291Z,26.05
2023-09-06T18:28:40.374Z,25.95
2023-09-06T18:31:07.107Z,25.89
2023-09-06T18:33:33.743Z,25.81
2023-09-06T18:36:00.382Z,25.75
2023-09-06T18:38:28.056Z,25.70
2023-09-06T18:40:57.286Z,25.64
2023-09-06T18:43:24.615Z,25.59
2023-09-06T18:45:51.881Z,25.51
2023-09-06T18:48:21.399Z,25.43
2023-09-06T18:50:48.840Z,25.35
2023-09-06T18:53:15.531Z,25.28
2023-09-06T18:55:45.039Z,25.19
2023-09-06T18:58:12.778Z,25.10
2023-09-06T19:00:40.849Z,25.02
2023-09-06T19:03:12.793Z,24.93
2023-09-06T19:05:41.417Z,24.84
2023-09-06T19:08:15.669Z,24.75
2023-09-06T19:10:43.719Z,24.65
2023-09-06T19:13:11.725Z,24.60
2023-09-06T19:15:39.620Z,24.55
2023-09-06T19:18:07.581Z,24.49
2023-09-06T19:20:37.511Z,24.44
2023-09-06T19:23:07.594Z,24.37
2023-09-06T19:25:38.901Z,24.30
2023-09-06T19:28:06.428Z,24.20
2023-09-06T19:30:33.550Z,24.12
2023-09-06T19:33:00.233Z,24.03
2023-09-06T19:35:27.092Z,23.95
2023-09-06T19:37:53.681Z,23.88
2023-09-06T19:40:20.299Z,23.80
2023-09-06T19:42:46.874Z,23.73
2023-09-06T19:45:13.548Z,23.67
2023-09-06T19:47:40.295Z,23.61
2023-09-06T19:50:08.088Z,23.55
2023-09-06T19:52:34.634Z,23.41
2023-09-06T19:55:02.365Z,23.43
2023-09-06T19:57:31.122Z,23.39
2023-09-06T19:59:58.600Z,23.34
2023-09-06T20:02:25.439Z,23.28
2023-09-06T20:04:52.383Z,23.19
2023-09-06T20:07:19.209Z,23.10
2023-09-06T20:09:45.795Z,23.05
2023-09-06T20:12:12.416Z,23.03
2023-09-06T20:14:39.043Z,22.97
2023-09-06T20:17:05.698Z,22.92
2023-09-06T20:19:32.351Z,22.88
2023-09-06T20:21:59.051Z,22.84
2023-09-06T20:24:25.652Z,22.79
2023-09-06T20:26:52.281Z,22.77
2023-09-06T20:29:19.133Z,22.72
2023-09-06T20:31:46.068Z,22.69
2023-09-06T20:34:13.494Z,22.66
2023-09-06T20:36:40.165Z,22.64
2023-09-06T20:39:07.959Z,22.62
2023-09-06T20:41:36.070Z,22.57
2023-09-06T20:44:02.684Z,22.55
2023-09-06T20:46:29.371Z,22.54
2023-09-06T20:48:56.063Z,22.54
2023-09-06T20:51:22.632Z,22.53
2023-09-06T20:53:50.351Z,22.51
2023-09-06T20:56:17.331Z,22.50
2023-09-06T20:58:43.874Z,22.47
2023-09-06T21:01:11.613Z,22.42
2023-09-06T21:03:38.469Z,22.39
2023-09-06T21:06:05.129Z,22.34
2023-09-06T21:08:31.948Z,22.32
2023-09-06T21:10:58.837Z,22.27
2023-09-06T21:13:26.509Z,22.24
2023-09-06T21:15:53.517Z,22.18
2023-09-06T21:18:20.570Z,22.11
2023-09-06T21:20:47.276Z,22.05
2023-09-06T21:23:13.865Z,22.01
2023-09-06T21:25:42.442Z,21.95
2023-09-06T21:28:09.211Z,21.92
2023-09-06T21:30:41.365Z,21.88
2023-09-06T21:33:09.557Z,21.85
2023-09-06T21:35:41.897Z,21.81
2023-09-06T21:38:09.076Z,21.78
2023-09-06T21:40:40.390Z,21.74
2023-09-06T21:43:16.875Z,21.68
2023-09-06T21:45:44.172Z,21.62
2023-09-06T21:48:11.713Z,21.57
2023-09-06T21:50:40.910Z,21.54
2023-09-06T21:53:07.891Z,21.41
2023-09-06T21:55:34.836Z,21.44
2023-09-06T21:58:09.735Z,21.44
2023-09-06T22:00:37.799Z,21.41
2023-09-06T22:03:05.002Z,21.38
2023-09-06T22:05:31.799Z,21.34
2023-09-06T22:07:58.334Z,21.29
2023-09-06T22:10:25.054Z,21.25
2023-09-06T22:12:51.919Z,21.26
2023-09-06T22:15:18.803Z,21.26
2023-09-06T22:17:45.583Z,21.24
2023-09-06T22:20:12.601Z,21.20
2023-09-06T22:22:40.525Z,21.22
2023-09-06T22:25:07.822Z,21.18
2023-09-06T22:27:34.875Z,21.18
2023-09-06T22:30:02.006Z,21.13
2023-09-06T22:32:28.605Z,21.11
2023-09-06T22:34:55.282Z,21.08
2023-09-06T22:37:21.843Z,21.08
2023-09-06T22:39:48.430Z,21.04
2023-09-06T22:42:14.934Z,20.99
2023-09-06T22:44:41.524Z,20.94
2023-09-06T22:47:09.276Z,20.89
2023-09-06T22:49:38.421Z,20.86
2023-09-06T22:52:06.813Z,20.82
2023-09-06T22:54:33.995Z,20.81
2023-09-06T22:57:00.426Z,20.81
2023-09-06T22:59:27.274Z,20.82
2023-09-06T23:01:54.208Z,20.82
2023-09-06T23:04:20.799Z,20.81
2023-09-06T23:06:47.360Z,20.79
2023-09-06T23:09:13.968Z,20.77
2023-09-06T23:11:46.190Z,20.76
2023-09-06T23:14:16.612Z,20.74
2023-09-06T23:16:43.120Z,20.70
2023-09-06T23:19:12.101Z,20.67
2023-09-06T23:21:39.671Z,20.65
2023-09-06T23:24:12.549Z,20.63
2023-09-06T23:26:40.259Z,20.60
2023-09-06T23:29:08.423Z,20.60
2023-09-06T23:31:40.206Z,20.58
2023-09-06T23:34:16.428Z,20.55
2023-09-06T23:36:43.360Z,20.53
2023-09-06T23:39:12.878Z,20.51
2023-09-06T23:41:42.690Z,20.48
2023-09-06T23:44:09.755Z,20.45
2023-09-06T23:46:36.446Z,20.41
2023-09-06T23:49:03.216Z,20.36
2023-09-06T23:51:30.945Z,20.35
2023-09-06T23:53:57.399Z,20.35
2023-09-06T23:56:23.870Z,20.34
2023-09-06T23:58:50.346Z,20.33
